Time;durP1;ratioP1;P1;durP2;ratioP2;P2;SDS_P1;SDS_P2;PMS_P1;PMS_P2;Temp;Humidity;BMP_temperature;BMP_pressure;BME280_temperature;BME280_humidity;BME280_pressure;Samples;Min_cycle;Max_cycle;Signal;HPM_P1;HPM_P2
2022/08/13 00:04:33;;;;;;;25.17;4.50;;;;;;;;;;5011341;28;20061;-59
2022/08/13 00:09:27;;;;;;;31.80;4.70;;;;;;;;;;5011903;28;20034;-58
2022/08/13 00:14:40;;;;;;;43.08;6.18;;;;;;;;;;5006157;28;20057;-57
2022/08/13 00:17:08;;;;;;;37.50;5.30;;;;;;;;;;5009237;28;20384;-57
2022/08/13 00:19:36;;;;;;;35.25;5.75;;;;;;;;;;5010778;28;20028;-58
2022/08/13 00:22:03;;;;;;;33.20;5.30;;;;;;;;;;5010415;28;20029;-57
2022/08/13 00:24:30;;;;;;;43.17;5.40;;;;;;;;;;5010286;28;20029;-57
2022/08/13 00:26:59;;;;;;;44.83;6.22;;;;;;;;;;5010574;28;20393;-57
2022/08/13 00:29:27;;;;;;;32.70;5.63;;;;;;;;;;5011305;28;20029;-57
2022/08/13 00:31:55;;;;;;;26.40;6.38;;;;;;;;;;5010178;28;20088;-58
2022/08/13 00:34:24;;;;;;;33.35;5.57;;;;;;;;;;5010887;28;20056;-59
2022/08/13 00:36:51;;;;;;;32.53;6.35;;;;;;;;;;5008380;28;20476;-59
2022/08/13 00:39:18;;;;;;;28.35;5.13;;;;;;;;;;5011012;28;20022;-59
2022/08/13 00:41:46;;;;;;;35.58;5.78;;;;;;;;;;5010621;28;20030;-59
2022/08/13 00:44:14;;;;;;;35.45;5.70;;;;;;;;;;5008002;28;20124;-60
2022/08/13 00:46:41;;;;;;;27.25;4.97;;;;;;;;;;4997689;28;20089;-58
2022/08/13 00:49:09;;;;;;;29.92;5.80;;;;;;;;;;4995578;28;20090;-61
2022/08/13 00:51:37;;;;;;;28.42;5.22;;;;;;;;;;4993339;28;20100;-61
2022/08/13 00:54:08;;;;;;;24.77;5.30;;;;;;;;;;4995705;28;20026;-59
2022/08/13 00:56:35;;;;;;;24.55;5.75;;;;;;;;;;4996787;28;20044;-59
2022/08/13 00:59:07;;;;;;;26.83;5.72;;;;;;;;;;4997409;28;20045;-59
2022/08/13 01:01:39;;;;;;;23.88;4.93;;;;;;;;;;4996716;28;20061;-59
2022/08/13 01:04:07;;;;;;;31.35;5.32;;;;;;;;;;4997019;28;20137;-59
2022/08/13 01:06:35;;;;;;;27.30;5.65;;;;;;;;;;4998378;28;20072;-59
2022/08/13 01:09:03;;;;;;;23.95;5.40;;;;;;;;;;4998127;28;20399;-58
2022/08/13 01:11:33;;;;;;;26.15;5.53;;;;;;;;;;4996940;28;20064;-60
2022/08/13 01:14:07;;;;;;;26.58;5.57;;;;;;;;;;4997203;28;20115;-59
2022/08/13 01:16:36;;;;;;;28.15;6.07;;;;;;;;;;4997107;28;20019;-59
2022/08/13 01:19:08;;;;;;;31.42;6.32;;;;;;;;;;4998013;28;20046;-59
2022/08/13 01:21:41;;;;;;;27.60;6.15;;;;;;;;;;4996501;28;20023;-59
2022/08/13 01:24:10;;;;;;;24.00;5.95;;;;;;;;;;4995527;28;20117;-59
2022/08/13 01:26:37;;;;;;;30.35;5.75;;;;;;;;;;4998429;28;20029;-60
2022/08/13 01:29:05;;;;;;;27.95;6.18;;;;;;;;;;4996483;28;20423;-59
2022/08/13 01:31:33;;;;;;;26.83;6.32;;;;;;;;;;5012977;28;20055;-58
2022/08/13 01:34:00;;;;;;;29.38;6.68;;;;;;;;;;5003798;28;20436;-57
2022/08/13 01:36:28;;;;;;;25.60;6.82;;;;;;;;;;4995868;28;20033;-60
2022/08/13 01:38:57;;;;;;;29.95;6.80;;;;;;;;;;4990533;28;20435;-58
2022/08/13 01:41:27;;;;;;;36.30;6.90;;;;;;;;;;5012925;28;20053;-59
2022/08/13 01:44:00;;;;;;;35.75;6.78;;;;;;;;;;5013286;28;20036;-59
2022/08/13 01:50:28;;;;;;;37.47;7.90;;;;;;;;;;5013524;28;20048;-57
2022/08/13 01:51:59;;;;;;;34.38;7.47;;;;;;;;;;5014219;28;20108;-58
2022/08/13 01:54:27;;;;;;;34.42;7.88;;;;;;;;;;5014286;28;20038;-57
2022/08/13 01:56:57;;;;;;;46.63;7.78;;;;;;;;;;5012364;28;20373;-58
2022/08/13 01:59:24;;;;;;;31.95;7.65;;;;;;;;;;5012827;28;20072;-56
2022/08/13 02:01:53;;;;;;;26.55;7.85;;;;;;;;;;5012914;28;20080;-55
2022/08/13 02:04:21;;;;;;;42.60;9.40;;;;;;;;;;5012944;28;20061;-57
2022/08/13 02:06:48;;;;;;;55.75;12.60;;;;;;;;;;4994321;28;20084;-56
2022/08/13 02:09:15;;;;;;;59.42;14.70;;;;;;;;;;5012825;28;20038;-55
2022/08/13 02:11:42;;;;;;;60.83;14.63;;;;;;;;;;5013092;28;20042;-57
2022/08/13 02:14:11;;;;;;;54.35;15.27;;;;;;;;;;4978168;28;20034;-57
2022/08/13 02:16:38;;;;;;;56.55;14.73;;;;;;;;;;4991947;28;20113;-57
2022/08/13 02:19:07;;;;;;;53.10;14.07;;;;;;;;;;4993614;28;20023;-57
2022/08/13 02:21:36;;;;;;;70.28;14.63;;;;;;;;;;4993591;28;20114;-57
2022/08/13 02:24:03;;;;;;;59.55;14.73;;;;;;;;;;4993941;28;20026;-56
2022/08/13 02:26:35;;;;;;;56.75;13.77;;;;;;;;;;4992615;28;20038;-56
2022/08/13 02:29:04;;;;;;;47.17;13.25;;;;;;;;;;4993371;28;20026;-58
2022/08/13 02:31:34;;;;;;;48.65;13.32;;;;;;;;;;4992633;28;20066;-57
2022/08/13 02:34:01;;;;;;;41.47;12.40;;;;;;;;;;4993353;28;20120;-59
2022/08/13 02:36:30;;;;;;;43.30;12.20;;;;;;;;;;5001128;28;20085;-58
2022/08/13 02:38:57;;;;;;;34.58;12.27;;;;;;;;;;4999548;28;20029;-58
2022/08/13 02:41:43;;;;;;;39.03;12.23;;;;;;;;;;5000787;28;20542;-57
2022/08/13 02:44:12;;;;;;;43.15;13.25;;;;;;;;;;5000691;28;20286;-59
2022/08/13 02:46:40;;;;;;;47.05;13.15;;;;;;;;;;5001250;28;20068;-57
2022/08/13 02:49:07;;;;;;;36.42;12.15;;;;;;;;;;5002296;28;20591;-57
2022/08/13 02:51:35;;;;;;;44.95;12.73;;;;;;;;;;5000329;28;20506;-55
2022/08/13 02:54:02;;;;;;;36.22;11.57;;;;;;;;;;5000189;28;20046;-59
2022/08/13 02:56:29;;;;;;;41.13;11.98;;;;;;;;;;5000479;28;20432;-57
2022/08/13 02:58:57;;;;;;;31.20;11.73;;;;;;;;;;5001016;28;20033;-57
2022/08/13 03:01:25;;;;;;;36.83;12.27;;;;;;;;;;5000018;28;20468;-54
2022/08/13 03:03:52;;;;;;;36.75;11.52;;;;;;;;;;5000032;28;20767;-58
2022/08/13 03:06:19;;;;;;;37.42;11.70;;;;;;;;;;5000782;28;20393;-58
2022/08/13 03:08:49;;;;;;;28.58;11.30;;;;;;;;;;4982105;28;20480;-58
2022/08/13 03:11:17;;;;;;;39.97;11.43;;;;;;;;;;4999986;28;20050;-58
2022/08/13 03:14:09;;;;;;;33.55;11.32;;;;;;;;;;5012315;28;20041;-56
2022/08/13 03:16:39;;;;;;;31.27;11.73;;;;;;;;;;5011219;28;20037;-58
2022/08/13 03:19:07;;;;;;;37.35;11.55;;;;;;;;;;5012583;28;20029;-56
2022/08/13 03:21:35;;;;;;;32.60;12.10;;;;;;;;;;5012470;28;20026;-59
2022/08/13 03:24:03;;;;;;;31.10;11.30;;;;;;;;;;5012351;28;20026;-59
2022/08/13 03:26:31;;;;;;;29.20;10.63;;;;;;;;;;5011538;28;20116;-58
2022/08/13 03:28:59;;;;;;;31.15;10.77;;;;;;;;;;5002792;28;20026;-58
2022/08/13 03:31:27;;;;;;;30.92;10.50;;;;;;;;;;5003453;28;20050;-59
2022/08/13 03:33:58;;;;;;;32.58;12.02;;;;;;;;;;5012588;28;20065;-59
2022/08/13 03:36:32;;;;;;;30.02;10.95;;;;;;;;;;5012737;28;20034;-59
2022/08/13 03:39:01;;;;;;;26.83;10.05;;;;;;;;;;5012713;28;20492;-59
2022/08/13 03:41:29;;;;;;;28.48;11.02;;;;;;;;;;5012735;28;20186;-59
2022/08/13 03:43:59;;;;;;;24.30;10.90;;;;;;;;;;5012735;28;20026;-58
2022/08/13 03:46:28;;;;;;;27.13;11.15;;;;;;;;;;5012643;28;20041;-59
2022/08/13 03:48:55;;;;;;;29.52;11.98;;;;;;;;;;5012256;28;20034;-59
2022/08/13 03:51:22;;;;;;;26.55;10.85;;;;;;;;;;5012616;28;20442;-59
2022/08/13 03:53:57;;;;;;;28.15;10.30;;;;;;;;;;5012560;28;20038;-59
2022/08/13 03:56:24;;;;;;;22.60;10.48;;;;;;;;;;5012674;28;20069;-59
2022/08/13 03:58:52;;;;;;;24.85;10.70;;;;;;;;;;5012714;28;20057;-57
2022/08/13 04:01:19;;;;;;;25.42;11.45;;;;;;;;;;5012806;28;20100;-57
2022/08/13 04:03:46;;;;;;;26.45;10.38;;;;;;;;;;5012439;28;20117;-58
2022/08/13 04:06:19;;;;;;;26.55;11.68;;;;;;;;;;5012646;28;20030;-59
2022/08/13 04:08:47;;;;;;;25.55;10.55;;;;;;;;;;5012628;28;20032;-59
2022/08/13 04:11:15;;;;;;;23.10;10.48;;;;;;;;;;5012511;28;20076;-59
2022/08/13 04:13:43;;;;;;;23.20;9.90;;;;;;;;;;5012516;28;20546;-59
2022/08/13 04:16:15;;;;;;;25.85;10.15;;;;;;;;;;5012561;28;20598;-57
2022/08/13 04:18:42;;;;;;;20.98;9.77;;;;;;;;;;5012628;28;20034;-59
2022/08/13 04:21:10;;;;;;;21.80;10.38;;;;;;;;;;5012557;28;20091;-59
2022/08/13 04:23:39;;;;;;;20.10;9.52;;;;;;;;;;5012535;28;20026;-59
2022/08/13 04:26:09;;;;;;;25.92;10.35;;;;;;;;;;5012450;28;20042;-59
2022/08/13 04:28:41;;;;;;;28.88;11.02;;;;;;;;;;5012546;28;20053;-59
2022/08/13 04:31:12;;;;;;;22.27;9.50;;;;;;;;;;5015262;28;20041;-58
2022/08/13 04:33:40;;;;;;;18.20;9.35;;;;;;;;;;5016212;28;20545;-59
2022/08/13 04:36:07;;;;;;;20.02;9.25;;;;;;;;;;5016265;28;20037;-58
2022/08/13 04:38:35;;;;;;;20.80;9.55;;;;;;;;;;5016181;28;20041;-58
2022/08/13 04:41:02;;;;;;;19.27;9.15;;;;;;;;;;5016085;28;20087;-59
2022/08/13 04:43:29;;;;;;;16.35;8.90;;;;;;;;;;5016148;28;20077;-58
2022/08/13 04:45:59;;;;;;;20.20;9.02;;;;;;;;;;5016058;28;20053;-59
2022/08/13 04:48:28;;;;;;;18.95;9.20;;;;;;;;;;5015932;28;20384;-59
2022/08/13 04:50:55;;;;;;;19.48;9.60;;;;;;;;;;5015948;28;20033;-59
2022/08/13 04:53:22;;;;;;;20.08;9.27;;;;;;;;;;5015892;28;20025;-59
2022/08/13 04:55:49;;;;;;;17.98;9.23;;;;;;;;;;5015846;28;20026;-57
2022/08/13 04:58:16;;;;;;;15.90;8.93;;;;;;;;;;5015745;28;20040;-59
2022/08/13 05:00:44;;;;;;;17.63;8.63;;;;;;;;;;5015718;28;20026;-59
2022/08/13 05:03:16;;;;;;;16.33;8.48;;;;;;;;;;5015636;28;20084;-59
2022/08/13 05:05:45;;;;;;;17.50;8.70;;;;;;;;;;5015400;28;20527;-59
2022/08/13 05:08:15;;;;;;;22.80;9.23;;;;;;;;;;5015657;28;20504;-59
2022/08/13 05:10:42;;;;;;;17.38;8.35;;;;;;;;;;5015378;28;20034;-59
2022/08/13 05:13:27;;;;;;;17.50;8.82;;;;;;;;;;5015154;28;20046;-58
2022/08/13 05:15:55;;;;;;;15.48;8.18;;;;;;;;;;5015404;28;20029;-59
2022/08/13 05:18:22;;;;;;;18.52;8.88;;;;;;;;;;5015370;28;20034;-59
2022/08/13 05:20:52;;;;;;;17.77;8.57;;;;;;;;;;5015476;28;20037;-59
2022/08/13 05:23:20;;;;;;;16.55;7.80;;;;;;;;;;5015164;28;20044;-59
2022/08/13 05:25:47;;;;;;;15.90;7.93;;;;;;;;;;5015188;28;20057;-58
2022/08/13 05:28:17;;;;;;;15.95;8.27;;;;;;;;;;5015359;28;20068;-58
2022/08/13 05:30:46;;;;;;;14.65;7.60;;;;;;;;;;5015043;28;20037;-58
2022/08/13 05:33:13;;;;;;;15.77;8.25;;;;;;;;;;5014937;28;20034;-59
2022/08/13 05:35:41;;;;;;;12.40;7.25;;;;;;;;;;5015149;28;20037;-59
2022/08/13 05:38:09;;;;;;;13.88;7.45;;;;;;;;;;5015105;28;20037;-59
2022/08/13 05:40:36;;;;;;;14.50;7.47;;;;;;;;;;5014950;28;20033;-59
2022/08/13 05:43:03;;;;;;;14.45;6.93;;;;;;;;;;5013911;28;20061;-58
2022/08/13 05:45:30;;;;;;;14.77;6.93;;;;;;;;;;5014883;28;20030;-59
2022/08/13 05:47:57;;;;;;;12.88;7.55;;;;;;;;;;5014880;28;20022;-59
2022/08/13 05:50:25;;;;;;;12.93;7.00;;;;;;;;;;5014742;28;20030;-59
2022/08/13 05:52:52;;;;;;;13.00;6.90;;;;;;;;;;5014600;28;20044;-59
2022/08/13 05:55:20;;;;;;;11.50;6.85;;;;;;;;;;5014806;28;20072;-59
2022/08/13 05:57:47;;;;;;;12.10;6.60;;;;;;;;;;5014605;28;20030;-59
2022/08/13 06:05:46;;;;;;;11.90;6.45;;;;;;;;;;5014368;28;20069;-59
2022/08/13 06:08:15;;;;;;;12.98;7.13;;;;;;;;;;5014510;28;20526;-59
2022/08/13 06:10:43;;;;;;;9.68;6.07;;;;;;;;;;5014338;28;20117;-59
2022/08/13 06:13:13;;;;;;;13.70;6.93;;;;;;;;;;5014329;28;20168;-59
2022/08/13 06:15:42;;;;;;;11.25;6.55;;;;;;;;;;4997357;28;20171;-59
2022/08/13 06:18:10;;;;;;;11.57;6.80;;;;;;;;;;5014316;28;20033;-59
2022/08/13 06:20:40;;;;;;;12.98;6.57;;;;;;;;;;4996762;28;20033;-58
2022/08/13 06:23:12;;;;;;;11.52;6.55;;;;;;;;;;5014165;28;20033;-59
2022/08/13 06:25:41;;;;;;;12.48;6.47;;;;;;;;;;5014246;28;20069;-59
2022/08/13 06:28:10;;;;;;;11.50;6.07;;;;;;;;;;5014157;28;20058;-59
2022/08/13 06:30:39;;;;;;;10.00;6.03;;;;;;;;;;5014055;28;20030;-59
2022/08/13 06:33:06;;;;;;;9.10;6.00;;;;;;;;;;5013970;28;20373;-59
2022/08/13 06:35:34;;;;;;;9.75;6.03;;;;;;;;;;5013951;28;20497;-59
2022/08/13 06:38:01;;;;;;;10.30;6.13;;;;;;;;;;5013935;28;20510;-59
2022/08/13 06:40:35;;;;;;;9.57;5.65;;;;;;;;;;5013977;28;20480;-59
2022/08/13 06:43:04;;;;;;;10.65;6.50;;;;;;;;;;5013806;28;20034;-59
2022/08/13 06:45:31;;;;;;;9.32;5.72;;;;;;;;;;5013655;28;20025;-59
2022/08/13 06:48:00;;;;;;;10.10;5.22;;;;;;;;;;5013773;28;20022;-58
2022/08/13 06:50:26;;;;;;;10.63;6.15;;;;;;;;;;5013899;28;20038;-58
2022/08/13 06:52:56;;;;;;;9.55;5.72;;;;;;;;;;5013218;28;20065;-59
2022/08/13 06:55:23;;;;;;;11.40;6.13;;;;;;;;;;5013617;28;20499;-59
2022/08/13 06:57:50;;;;;;;13.98;6.38;;;;;;;;;;5013624;28;20037;-59
2022/08/13 07:00:17;;;;;;;8.80;5.50;;;;;;;;;;5013542;28;20026;-59
2022/08/13 07:02:44;;;;;;;7.90;4.88;;;;;;;;;;5013465;28;20487;-59
2022/08/13 07:05:12;;;;;;;10.82;5.97;;;;;;;;;;5013140;28;20054;-56
2022/08/13 07:07:44;;;;;;;9.30;5.78;;;;;;;;;;5013455;28;20042;-59
2022/08/13 07:10:13;;;;;;;8.52;5.10;;;;;;;;;;5013148;28;20029;-59
2022/08/13 07:12:41;;;;;;;11.88;5.38;;;;;;;;;;5013225;28;20450;-59
2022/08/13 07:15:15;;;;;;;9.68;5.65;;;;;;;;;;5013341;28;20065;-59
2022/08/13 07:17:45;;;;;;;8.15;5.55;;;;;;;;;;5013322;28;20033;-59
2022/08/13 07:20:12;;;;;;;7.32;4.90;;;;;;;;;;5013231;28;20029;-59
2022/08/13 07:22:39;;;;;;;9.63;5.78;;;;;;;;;;5013190;28;20057;-59
2022/08/13 07:25:10;;;;;;;10.95;5.65;;;;;;;;;;5013091;28;20030;-59
2022/08/13 07:27:41;;;;;;;8.57;5.45;;;;;;;;;;5013439;28;20495;-59
2022/08/13 07:30:11;;;;;;;10.05;5.32;;;;;;;;;;5013082;28;20034;-59
2022/08/13 07:32:39;;;;;;;8.35;4.97;;;;;;;;;;5012854;28;20073;-59
2022/08/13 07:35:08;;;;;;;6.88;4.95;;;;;;;;;;5013094;28;20097;-59
2022/08/13 07:37:36;;;;;;;11.02;5.78;;;;;;;;;;5012874;28;20042;-59
2022/08/13 07:40:10;;;;;;;10.38;5.50;;;;;;;;;;5012939;28;20077;-59
2022/08/13 07:42:42;;;;;;;8.10;5.05;;;;;;;;;;5012865;28;20022;-59
2022/08/13 07:45:10;;;;;;;8.70;5.07;;;;;;;;;;5012793;28;20049;-59
2022/08/13 07:47:40;;;;;;;11.02;5.20;;;;;;;;;;5012941;28;20034;-59
2022/08/13 07:50:10;;;;;;;10.90;5.00;;;;;;;;;;5013203;28;20026;-58
2022/08/13 07:52:38;;;;;;;8.50;5.03;;;;;;;;;;5012683;28;20045;-58
2022/08/13 07:55:07;;;;;;;7.50;4.38;;;;;;;;;;5012810;28;20080;-59
2022/08/13 07:57:36;;;;;;;9.43;4.65;;;;;;;;;;5012629;28;20030;-59
2022/08/13 08:00:05;;;;;;;7.78;4.82;;;;;;;;;;5013032;28;20030;-59
2022/08/13 08:02:32;;;;;;;8.20;4.72;;;;;;;;;;5012695;28;20022;-59
2022/08/13 08:04:59;;;;;;;7.07;4.47;;;;;;;;;;5013875;28;20049;-59
2022/08/13 08:07:26;;;;;;;7.57;4.70;;;;;;;;;;5016738;28;20060;-59
2022/08/13 08:09:54;;;;;;;8.00;4.38;;;;;;;;;;5016680;28;20093;-59
2022/08/13 08:12:37;;;;;;;7.78;4.93;;;;;;;;;;5016458;28;20034;-59
2022/08/13 08:15:11;;;;;;;7.40;4.57;;;;;;;;;;5016594;28;20061;-59
2022/08/13 08:17:40;;;;;;;7.95;4.97;;;;;;;;;;5016517;28;20037;-58
2022/08/13 08:20:08;;;;;;;8.60;4.95;;;;;;;;;;5016572;28;20387;-59
2022/08/13 08:22:35;;;;;;;6.55;4.35;;;;;;;;;;5016355;28;20025;-59
2022/08/13 08:25:03;;;;;;;7.07;4.45;;;;;;;;;;5016467;28;20101;-59
2022/08/13 08:27:32;;;;;;;6.45;4.43;;;;;;;;;;5016374;28;20026;-59
2022/08/13 08:30:00;;;;;;;7.38;4.53;;;;;;;;;;5016395;28;20022;-59
2022/08/13 08:32:29;;;;;;;7.38;4.32;;;;;;;;;;5016309;28;20380;-58
2022/08/13 08:34:56;;;;;;;7.10;4.05;;;;;;;;;;5016298;28;20041;-59
2022/08/13 08:42:57;;;;;;;6.45;4.10;;;;;;;;;;5016357;28;20053;-59
2022/08/13 08:45:24;;;;;;;7.20;4.35;;;;;;;;;;5016079;28;20080;-59
2022/08/13 08:47:52;;;;;;;7.00;4.25;;;;;;;;;;5016070;28;20076;-59
2022/08/13 08:50:20;;;;;;;7.05;4.28;;;;;;;;;;5015909;28;20037;-59
2022/08/13 08:55:36;;;;;;;6.57;4.13;;;;;;;;;;5016152;28;20033;-58
2022/08/13 08:58:04;;;;;;;6.65;4.20;;;;;;;;;;5015739;28;20037;-59
2022/08/13 09:00:33;;;;;;;6.63;4.20;;;;;;;;;;5015856;28;20025;-58
2022/08/13 09:03:01;;;;;;;6.93;4.00;;;;;;;;;;5015698;28;20519;-59
2022/08/13 09:05:28;;;;;;;5.93;4.05;;;;;;;;;;5015440;28;20453;-59
2022/08/13 09:07:56;;;;;;;7.28;3.80;;;;;;;;;;5015514;28;20033;-58
2022/08/13 09:10:23;;;;;;;6.35;3.90;;;;;;;;;;5015518;28;20026;-59
2022/08/13 09:12:52;;;;;;;6.53;3.80;;;;;;;;;;5015502;28;20038;-59
2022/08/13 09:15:21;;;;;;;5.90;3.92;;;;;;;;;;5015193;28;20030;-58
2022/08/13 09:17:49;;;;;;;6.07;3.75;;;;;;;;;;5015383;28;20105;-59
2022/08/13 09:20:20;;;;;;;5.55;3.72;;;;;;;;;;5015481;28;20597;-58
2022/08/13 09:22:48;;;;;;;6.60;3.93;;;;;;;;;;5015418;28;20018;-58
2022/08/13 09:25:18;;;;;;;6.20;4.03;;;;;;;;;;5015404;28;20336;-59
2022/08/13 09:27:45;;;;;;;6.70;4.18;;;;;;;;;;5015194;28;20365;-59
2022/08/13 09:30:13;;;;;;;4.68;3.20;;;;;;;;;;5015292;28;20531;-59
2022/08/13 09:32:40;;;;;;;5.75;3.75;;;;;;;;;;5015064;28;20491;-59
2022/08/13 09:35:08;;;;;;;4.82;3.67;;;;;;;;;;5015241;28;20059;-59
2022/08/13 09:37:35;;;;;;;5.88;3.70;;;;;;;;;;5015071;28;20456;-59
2022/08/13 09:40:06;;;;;;;7.72;4.03;;;;;;;;;;5015125;28;20476;-58
2022/08/13 09:42:47;;;;;;;6.47;3.72;;;;;;;;;;5014954;28;20091;-59
2022/08/13 09:45:14;;;;;;;5.82;3.97;;;;;;;;;;5014941;28;20067;-59
2022/08/13 09:47:42;;;;;;;4.90;3.35;;;;;;;;;;5014983;28;20423;-59
2022/08/13 09:50:10;;;;;;;5.15;4.05;;;;;;;;;;5014808;28;20033;-59
2022/08/13 09:52:37;;;;;;;6.28;3.80;;;;;;;;;;5014593;28;20037;-59
2022/08/13 09:55:05;;;;;;;6.47;4.13;;;;;;;;;;5014733;28;20022;-59
2022/08/13 09:57:32;;;;;;;5.43;3.60;;;;;;;;;;5014751;28;20797;-58
2022/08/13 09:59:59;;;;;;;6.43;3.97;;;;;;;;;;5014705;28;20104;-59
2022/08/13 10:02:26;;;;;;;5.57;3.75;;;;;;;;;;5014631;28;20037;-59
2022/08/13 10:04:57;;;;;;;5.13;3.83;;;;;;;;;;5014365;28;20050;-59
2022/08/13 10:07:24;;;;;;;7.78;3.88;;;;;;;;;;5014443;28;20097;-58
2022/08/13 10:09:51;;;;;;;6.05;3.83;;;;;;;;;;5014519;28;20101;-59
2022/08/13 10:12:18;;;;;;;5.47;3.88;;;;;;;;;;5014331;28;20426;-59
2022/08/13 10:14:45;;;;;;;6.35;4.32;;;;;;;;;;5014439;28;20026;-58
2022/08/13 10:17:12;;;;;;;6.32;3.97;;;;;;;;;;5014389;28;20022;-59
2022/08/13 10:19:39;;;;;;;5.65;3.55;;;;;;;;;;4996820;28;20037;-59
2022/08/13 10:22:06;;;;;;;5.63;3.80;;;;;;;;;;5014236;28;20062;-59
2022/08/13 10:24:33;;;;;;;6.43;3.72;;;;;;;;;;5014220;28;20057;-58
2022/08/13 10:27:00;;;;;;;7.60;3.80;;;;;;;;;;5013844;28;20025;-58
2022/08/13 10:29:27;;;;;;;5.70;4.00;;;;;;;;;;5013803;28;20487;-59
2022/08/13 10:31:54;;;;;;;6.90;4.05;;;;;;;;;;5014061;28;20053;-59
2022/08/13 10:34:22;;;;;;;6.63;4.10;;;;;;;;;;5014020;28;20400;-59
2022/08/13 10:36:49;;;;;;;6.13;3.80;;;;;;;;;;5013964;28;20030;-59
2022/08/13 10:39:16;;;;;;;8.15;4.60;;;;;;;;;;4996534;28;20022;-59
2022/08/13 10:41:44;;;;;;;7.78;4.68;;;;;;;;;;5013872;28;20030;-59
2022/08/13 10:44:13;;;;;;;6.00;4.28;;;;;;;;;;5013719;28;20038;-59
2022/08/13 10:46:45;;;;;;;7.38;4.97;;;;;;;;;;5013780;28;20022;-59
2022/08/13 10:49:13;;;;;;;8.77;4.93;;;;;;;;;;5013774;28;20030;-59
2022/08/13 10:51:40;;;;;;;7.15;4.57;;;;;;;;;;5013638;28;20091;-59
2022/08/13 10:54:07;;;;;;;7.80;4.97;;;;;;;;;;5013641;28;20026;-59
2022/08/13 10:56:34;;;;;;;7.72;5.03;;;;;;;;;;5013621;28;20026;-59
2022/08/13 10:59:02;;;;;;;7.07;4.75;;;;;;;;;;5013506;28;20479;-59
2022/08/13 11:01:30;;;;;;;8.95;4.88;;;;;;;;;;5013533;28;20072;-58
2022/08/13 11:04:00;;;;;;;7.07;4.97;;;;;;;;;;5012615;28;20042;-58
2022/08/13 11:06:27;;;;;;;7.50;4.90;;;;;;;;;;5009333;28;20062;-59
2022/08/13 11:08:57;;;;;;;9.18;5.57;;;;;;;;;;5012278;28;20779;-61
2022/08/13 11:11:25;;;;;;;6.78;4.85;;;;;;;;;;5010791;28;20088;-61
2022/08/13 11:13:52;;;;;;;8.35;5.60;;;;;;;;;;5011489;28;20407;-58
2022/08/13 11:16:56;;;;;;;11.05;5.60;;;;;;;;;;5011751;28;20112;-59
2022/08/13 11:19:15;;;;;;;8.27;5.43;;;;;;;;;;5005931;28;20030;-59
2022/08/13 11:21:43;;;;;;;11.88;5.88;;;;;;;;;;5011731;28;20472;-59
2022/08/13 11:24:10;;;;;;;8.90;5.55;;;;;;;;;;5011665;28;20100;-51
2022/08/13 11:26:37;;;;;;;12.15;5.70;;;;;;;;;;4994311;28;20357;-51
2022/08/13 11:29:05;;;;;;;7.78;5.20;;;;;;;;;;5011685;28;20773;-56
2022/08/13 11:31:32;;;;;;;8.00;5.38;;;;;;;;;;5011631;28;20036;-54
2022/08/13 11:33:59;;;;;;;10.20;6.00;;;;;;;;;;5016208;28;20525;-54
2022/08/13 11:36:26;;;;;;;10.50;5.75;;;;;;;;;;5022393;28;20108;-52
2022/08/13 11:38:53;;;;;;;8.85;5.53;;;;;;;;;;5021609;28;20060;-55
2022/08/13 11:41:20;;;;;;;12.25;5.93;;;;;;;;;;5023183;28;20486;-53
2022/08/13 11:43:48;;;;;;;9.05;5.30;;;;;;;;;;5019359;28;20026;-52
2022/08/13 11:46:15;;;;;;;8.35;5.60;;;;;;;;;;5014596;28;21021;-55
2022/08/13 11:48:43;;;;;;;9.88;5.90;;;;;;;;;;5020509;28;20030;-56
2022/08/13 11:51:10;;;;;;;8.38;5.43;;;;;;;;;;5018267;28;20034;-52
2022/08/13 11:53:37;;;;;;;16.23;5.93;;;;;;;;;;5020847;28;20088;-55
2022/08/13 11:56:04;;;;;;;9.07;5.07;;;;;;;;;;5022820;28;20044;-54
2022/08/13 11:58:32;;;;;;;8.43;5.22;;;;;;;;;;5022193;28;20105;-54
2022/08/13 12:00:59;;;;;;;8.35;5.03;;;;;;;;;;5020874;28;20022;-54
2022/08/13 12:03:27;;;;;;;10.82;5.25;;;;;;;;;;5004639;28;20395;-52
2022/08/13 12:05:54;;;;;;;10.10;4.90;;;;;;;;;;5021674;28;20042;-55
2022/08/13 12:08:21;;;;;;;7.40;4.93;;;;;;;;;;5020139;28;20038;-56
2022/08/13 12:10:48;;;;;;;9.77;4.60;;;;;;;;;;5020798;28;20033;-54
2022/08/13 12:13:15;;;;;;;7.57;4.53;;;;;;;;;;5021787;28;20109;-54
2022/08/13 12:15:42;;;;;;;10.57;4.80;;;;;;;;;;5013470;28;20041;-54
2022/08/13 12:18:17;;;;;;;8.55;5.30;;;;;;;;;;5012555;28;20026;-53
2022/08/13 12:20:44;;;;;;;7.00;4.65;;;;;;;;;;5010096;28;20057;-54
2022/08/13 12:23:11;;;;;;;9.52;4.80;;;;;;;;;;5010531;28;20105;-53
2022/08/13 12:25:38;;;;;;;6.97;4.82;;;;;;;;;;5014498;28;20054;-55
2022/08/13 12:28:11;;;;;;;7.03;4.65;;;;;;;;;;5012169;28;20018;-56
2022/08/13 12:30:38;;;;;;;9.95;5.43;;;;;;;;;;5010266;28;20037;-53
2022/08/13 12:33:05;;;;;;;6.88;4.60;;;;;;;;;;5011710;28;20022;-54
2022/08/13 12:35:33;;;;;;;7.28;5.15;;;;;;;;;;5011668;28;20033;-54
2022/08/13 12:38:00;;;;;;;10.40;4.50;;;;;;;;;;5014248;28;20071;-53
2022/08/13 12:40:27;;;;;;;7.50;4.60;;;;;;;;;;5020121;28;20049;-53
2022/08/13 12:42:54;;;;;;;8.82;5.18;;;;;;;;;;5020059;28;20036;-56
2022/08/13 12:45:21;;;;;;;7.38;4.30;;;;;;;;;;5021682;28;20040;-54
2022/08/13 12:47:48;;;;;;;6.63;4.47;;;;;;;;;;5020936;28;20035;-56
2022/08/13 12:50:15;;;;;;;9.02;4.40;;;;;;;;;;4996940;28;20026;-54
2022/08/13 12:52:42;;;;;;;6.57;4.03;;;;;;;;;;5024748;28;20040;-51
2022/08/13 12:55:09;;;;;;;8.63;5.22;;;;;;;;;;5021824;28;20057;-55
2022/08/13 12:57:38;;;;;;;6.60;4.25;;;;;;;;;;5024740;28;20132;-53
2022/08/13 13:00:09;;;;;;;7.45;4.13;;;;;;;;;;5020638;28;20022;-56
2022/08/13 13:02:39;;;;;;;6.13;4.05;;;;;;;;;;5034196;28;20116;-52
2022/08/13 13:05:06;;;;;;;10.18;4.15;;;;;;;;;;4956576;28;2248029;-54
2022/08/13 13:07:33;;;;;;;9.05;4.38;;;;;;;;;;5035468;28;20029;-53
2022/08/13 13:10:00;;;;;;;7.82;4.63;;;;;;;;;;5035376;28;20026;-54
2022/08/13 13:12:28;;;;;;;6.95;4.03;;;;;;;;;;5029272;28;20054;-58
2022/08/13 13:14:55;;;;;;;7.32;4.20;;;;;;;;;;5015441;28;20029;-56
2022/08/13 13:17:22;;;;;;;5.22;3.70;;;;;;;;;;4997920;28;20490;-57
2022/08/13 13:19:49;;;;;;;7.43;3.95;;;;;;;;;;5017644;28;20029;-56
2022/08/13 13:22:16;;;;;;;6.75;3.90;;;;;;;;;;5013886;28;20026;-56
2022/08/13 13:24:43;;;;;;;7.30;4.25;;;;;;;;;;5013963;28;20026;-55
2022/08/13 13:27:10;;;;;;;7.95;3.90;;;;;;;;;;5015275;28;20030;-52
2022/08/13 13:29:38;;;;;;;9.52;3.92;;;;;;;;;;5015269;28;20026;-56
2022/08/13 13:32:13;;;;;;;8.93;4.25;;;;;;;;;;5014988;28;20076;-55
2022/08/13 13:34:43;;;;;;;12.15;4.47;;;;;;;;;;5015124;28;20045;-52
2022/08/13 13:37:11;;;;;;;10.68;4.32;;;;;;;;;;5015078;28;20041;-53
2022/08/13 13:39:39;;;;;;;9.23;4.40;;;;;;;;;;5014367;28;20034;-55
2022/08/13 13:42:06;;;;;;;13.00;3.85;;;;;;;;;;5014825;28;20033;-52
2022/08/13 13:44:33;;;;;;;12.90;4.53;;;;;;;;;;5015069;28;20030;-52
2022/08/13 13:47:01;;;;;;;10.20;4.10;;;;;;;;;;5008760;28;20033;-51
2022/08/13 13:49:28;;;;;;;16.40;5.18;;;;;;;;;;5014935;28;20081;-51
2022/08/13 13:51:55;;;;;;;11.90;4.18;;;;;;;;;;5014505;28;20038;-60
2022/08/13 13:54:22;;;;;;;11.10;4.55;;;;;;;;;;5014707;28;20121;-56
2022/08/13 13:56:49;;;;;;;9.45;4.40;;;;;;;;;;5014289;28;20030;-55
2022/08/13 13:59:16;;;;;;;9.55;4.35;;;;;;;;;;5014654;28;20040;-53
2022/08/13 14:01:44;;;;;;;11.63;4.40;;;;;;;;;;5014173;28;20030;-52
2022/08/13 14:04:11;;;;;;;10.38;4.03;;;;;;;;;;5013565;28;20046;-52
2022/08/13 14:06:39;;;;;;;10.68;4.13;;;;;;;;;;5014168;28;20079;-56
2022/08/13 14:09:08;;;;;;;10.63;4.13;;;;;;;;;;5014419;28;20392;-52
2022/08/13 14:11:36;;;;;;;11.98;4.30;;;;;;;;;;5013939;28;20038;-50
2022/08/13 14:14:04;;;;;;;11.38;4.10;;;;;;;;;;4996927;28;20044;-57
2022/08/13 14:16:31;;;;;;;14.93;4.35;;;;;;;;;;5014373;28;20033;-53
2022/08/13 14:18:58;;;;;;;13.13;3.95;;;;;;;;;;5014108;28;20022;-53
2022/08/13 14:21:26;;;;;;;12.40;4.43;;;;;;;;;;5013656;28;20491;-58
2022/08/13 14:23:53;;;;;;;18.08;4.32;;;;;;;;;;5002530;28;20027;-54
2022/08/13 14:26:22;;;;;;;17.30;4.47;;;;;;;;;;4979268;28;20037;-55
2022/08/13 14:28:50;;;;;;;12.93;4.57;;;;;;;;;;4994591;28;20031;-56
2022/08/13 14:31:18;;;;;;;14.27;4.22;;;;;;;;;;4996889;28;20092;-56
2022/08/13 14:33:47;;;;;;;21.45;5.40;;;;;;;;;;4994125;28;20363;-56
2022/08/13 14:36:15;;;;;;;25.60;5.53;;;;;;;;;;4994365;28;20113;-54
2022/08/13 14:38:43;;;;;;;19.27;6.68;;;;;;;;;;4994338;28;20026;-55
2022/08/13 14:41:11;;;;;;;31.15;8.20;;;;;;;;;;4994310;28;20034;-53
2022/08/13 14:43:38;;;;;;;35.13;9.40;;;;;;;;;;4994246;28;20424;-56
2022/08/13 14:46:06;;;;;;;38.33;9.68;;;;;;;;;;4999204;28;20032;-56
2022/08/13 14:48:36;;;;;;;40.05;9.85;;;;;;;;;;4993959;28;20022;-59
2022/08/13 14:51:04;;;;;;;56.33;11.13;;;;;;;;;;4994040;28;20088;-54
2022/08/13 14:53:31;;;;;;;42.67;10.20;;;;;;;;;;4993865;28;20145;-57
2022/08/13 14:56:00;;;;;;;40.35;10.63;;;;;;;;;;4993843;28;20033;-56
2022/08/13 14:58:28;;;;;;;42.03;10.25;;;;;;;;;;4993962;28;20054;-57
2022/08/13 15:00:55;;;;;;;41.65;10.60;;;;;;;;;;4993999;28;20030;-58
2022/08/13 15:03:23;;;;;;;37.92;11.23;;;;;;;;;;4993743;28;20034;-57
2022/08/13 15:05:51;;;;;;;36.55;10.10;;;;;;;;;;4993551;28;20053;-55